createdAt,value
2018-06-24T00:00:38.332Z,63.97
2018-06-24T00:01:38.267Z,64.7
2018-06-24T00:02:38.234Z,65.06
2018-06-24T00:03:38.401Z,65.28
2018-06-24T00:04:38.420Z,65.53
2018-06-24T00:05:38.264Z,65.77
2018-06-24T00:06:38.248Z,65.53
2018-06-24T00:07:38.267Z,65.52
2018-06-24T00:08:38.286Z,65.78
2018-06-24T00:09:38.250Z,65.65
2018-06-24T00:10:38.295Z,66.27
2018-06-24T00:11:38.275Z,66.9
2018-06-24T00:12:38.256Z,67.38
2018-06-24T00:13:38.296Z,67.92
2018-06-24T00:14:38.327Z,67.98
2018-06-24T00:15:38.284Z,67.96
2018-06-24T00:16:38.417Z,67.99
2018-06-24T00:17:38.243Z,67.82
2018-06-24T00:18:38.351Z,67.24
2018-06-24T00:19:38.303Z,66.91
2018-06-24T00:20:38.258Z,67.17
2018-06-24T00:21:38.297Z,67.12
2018-06-24T00:22:38.257Z,67.15
2018-06-24T00:23:38.274Z,66.97
2018-06-24T00:24:38.271Z,66.08
2018-06-24T00:25:38.276Z,66.03
2018-06-24T00:26:38.271Z,66.1
2018-06-24T00:27:38.252Z,65.79
2018-06-24T00:28:38.320Z,66.23
2018-06-24T00:29:38.288Z,67.08
2018-06-24T00:30:38.389Z,66.72
2018-06-24T00:31:38.424Z,66.45
2018-06-24T00:32:38.258Z,65.94
2018-06-24T00:33:38.245Z,66.65
2018-06-24T00:34:38.401Z,66.38
2018-06-24T00:35:38.280Z,67.06
2018-06-24T00:36:38.267Z,66.15
2018-06-24T00:37:38.262Z,66.67
2018-06-24T00:38:38.283Z,65.91
2018-06-24T00:39:38.282Z,66.01
2018-06-24T00:40:38.276Z,65.88
2018-06-24T00:41:38.301Z,66.45
2018-06-24T00:42:38.262Z,65.34
2018-06-24T00:43:38.298Z,65.68
2018-06-24T00:44:38.273Z,65.46
2018-06-24T00:45:38.284Z,66.91
2018-06-24T00:46:38.277Z,66.5
2018-06-24T00:47:38.287Z,66.96
2018-06-24T00:48:38.295Z,66.85
2018-06-24T00:49:38.286Z,66.77
2018-06-24T00:50:38.295Z,66.7
2018-06-24T00:51:38.265Z,66.47
2018-06-24T00:52:38.271Z,66.74
2018-06-24T00:53:38.392Z,66.87
2018-06-24T00:54:38.276Z,66.97
2018-06-24T00:55:38.280Z,66.95
2018-06-24T00:56:38.267Z,66.92
2018-06-24T00:57:38.309Z,66.93
2018-06-24T00:58:38.267Z,67.57
2018-06-24T00:59:38.302Z,67.45
2018-06-24T01:00:38.280Z,67.79
2018-06-24T01:01:38.278Z,68.48
2018-06-24T01:02:38.285Z,67.95
2018-06-24T01:03:38.280Z,68.38
2018-06-24T01:04:38.455Z,68.05
2018-06-24T01:05:38.296Z,67.75
2018-06-24T01:06:38.275Z,67.74
2018-06-24T01:07:38.279Z,67.31
2018-06-24T01:08:38.279Z,66.75
2018-06-24T01:09:38.284Z,66.67
2018-06-24T01:10:38.295Z,66.31
2018-06-24T01:11:38.285Z,66.21
2018-06-24T01:12:38.288Z,66.99
2018-06-24T01:13:38.363Z,67.32
2018-06-24T01:14:38.278Z,66.78
2018-06-24T01:15:38.294Z,66.81
2018-06-24T01:16:38.282Z,66.38
2018-06-24T01:17:38.285Z,67.19
2018-06-24T01:18:38.302Z,67.03
2018-06-24T01:19:38.307Z,68.08
2018-06-24T01:20:38.299Z,66.85
2018-06-24T01:21:38.295Z,66.77
2018-06-24T01:22:38.289Z,66.56
2018-06-24T01:23:38.467Z,66.69
2018-06-24T01:24:38.406Z,67.97
2018-06-24T01:25:38.302Z,67.91
2018-06-24T01:26:38.318Z,66.83
2018-06-24T01:27:38.301Z,66.89
2018-06-24T01:28:38.435Z,67.63
2018-06-24T01:29:38.284Z,66.68
2018-06-24T01:30:38.329Z,67.83
2018-06-24T01:31:38.299Z,67.91
2018-06-24T01:32:38.284Z,67.17
2018-06-24T01:33:38.365Z,68.1
2018-06-24T01:34:38.454Z,67.54
2018-06-24T01:35:38.306Z,67.68
2018-06-24T01:36:38.287Z,67.84
2018-06-24T01:37:38.471Z,67.96
2018-06-24T01:38:38.349Z,68.16
2018-06-24T01:39:38.292Z,68.38
2018-06-24T01:40:38.301Z,68.1
2018-06-24T01:41:38.297Z,67.54
2018-06-24T01:42:38.301Z,67.08
2018-06-24T01:43:38.314Z,68.25
2018-06-24T01:44:38.423Z,68.13
2018-06-24T01:45:38.324Z,68.33
2018-06-24T01:46:38.320Z,68.07
2018-06-24T01:47:38.360Z,68.77
2018-06-24T01:48:38.332Z,68.5
2018-06-24T01:49:38.326Z,67.93
2018-06-24T01:50:38.304Z,68.18
2018-06-24T01:51:38.312Z,68.22
2018-06-24T01:52:38.588Z,67.64
2018-06-24T01:53:38.330Z,68.74
2018-06-24T01:54:38.504Z,68.68
2018-06-24T01:55:38.347Z,67.89
2018-06-24T01:56:38.469Z,67.72
2018-06-24T01:57:38.358Z,68.08
2018-06-24T01:58:38.363Z,67.74
2018-06-24T01:59:38.315Z,67.69
2018-06-24T02:00:38.312Z,68.06
2018-06-24T02:01:38.302Z,68.69
2018-06-24T02:02:38.310Z,68.3
2018-06-24T02:03:38.310Z,68.48
2018-06-24T02:04:38.311Z,68.52
2018-06-24T02:05:38.329Z,69.37
2018-06-24T02:06:38.319Z,69.18
2018-06-24T02:07:38.315Z,68.94
2018-06-24T02:08:38.321Z,68.95
2018-06-24T02:09:38.329Z,68.76
2018-06-24T02:10:38.324Z,68.51
2018-06-24T02:11:38.354Z,68.91
2018-06-24T02:12:38.308Z,69.08
2018-06-24T02:13:38.323Z,69.12
2018-06-24T02:14:38.307Z,68.43
2018-06-24T02:15:38.494Z,69.4
2018-06-24T02:16:38.469Z,69.46
2018-06-24T02:17:38.327Z,69.1
2018-06-24T02:18:38.385Z,68.77
2018-06-24T02:19:38.355Z,69.38
2018-06-24T02:20:38.370Z,68.93
2018-06-24T02:21:38.328Z,69.15
2018-06-24T02:22:38.323Z,69.29
2018-06-24T02:23:38.468Z,68.39
2018-06-24T02:24:38.328Z,70.26
2018-06-24T02:25:38.351Z,70.38
2018-06-24T02:26:38.320Z,70.26
2018-06-24T02:27:38.339Z,69.91
2018-06-24T02:28:38.532Z,69.78
2018-06-24T02:29:38.411Z,69.52
2018-06-24T02:30:38.360Z,69.48
2018-06-24T02:31:38.364Z,70.25
2018-06-24T02:32:38.352Z,70.49
2018-06-24T02:33:38.383Z,70.12
2018-06-24T02:34:38.326Z,69.88
2018-06-24T02:35:38.416Z,69.89
2018-06-24T02:36:38.340Z,69.89
2018-06-24T02:37:38.338Z,69.74
2018-06-24T02:38:38.340Z,69.76
2018-06-24T02:39:38.388Z,69.94
2018-06-24T02:40:38.339Z,69.99
2018-06-24T02:41:38.329Z,69.94
2018-06-24T02:42:38.498Z,70.01
2018-06-24T02:43:38.362Z,69.39
2018-06-24T02:44:38.453Z,69.16
2018-06-24T02:45:38.421Z,69.36
2018-06-24T02:46:38.353Z,70
2018-06-24T02:47:38.660Z,69.55
2018-06-24T02:48:38.678Z,69.48
2018-06-24T02:49:38.459Z,69.36
2018-06-24T02:50:38.421Z,69.37
2018-06-24T02:51:38.356Z,69.73
2018-06-24T02:52:38.407Z,69.82
2018-06-24T02:53:38.436Z,70.19
2018-06-24T02:54:38.336Z,69.58
2018-06-24T02:55:38.348Z,69.97
2018-06-24T02:56:38.352Z,70.21
2018-06-24T02:57:38.346Z,70.47
2018-06-24T02:58:38.383Z,70.63
2018-06-24T02:59:38.350Z,70.45
2018-06-24T03:00:38.340Z,70.08
2018-06-24T03:01:38.364Z,70.44
2018-06-24T03:02:38.488Z,69.98
2018-06-24T03:03:38.400Z,70.15
2018-06-24T03:04:38.525Z,70.32
2018-06-24T03:05:38.364Z,70.5
2018-06-24T03:06:38.338Z,70.06
2018-06-24T03:07:38.341Z,70.02
2018-06-24T03:08:38.351Z,70.18
2018-06-24T03:09:38.347Z,70.08
2018-06-24T03:10:38.366Z,70.94
2018-06-24T03:11:38.348Z,70.39
2018-06-24T03:12:38.347Z,70.59
2018-06-24T03:13:38.360Z,70.2
2018-06-24T03:14:38.354Z,70.48
2018-06-24T03:15:38.347Z,70.85
2018-06-24T03:16:38.395Z,70.98
2018-06-24T03:17:38.356Z,70.44
2018-06-24T03:18:38.361Z,70.8
2018-06-24T03:19:38.348Z,70.3
2018-06-24T03:20:38.356Z,70.84
2018-06-24T03:21:38.362Z,70.48
2018-06-24T03:22:38.347Z,70.62
2018-06-24T03:23:38.374Z,69.96
2018-06-24T03:24:38.395Z,70.18
2018-06-24T03:25:38.397Z,70.43
2018-06-24T03:26:38.430Z,70.02
2018-06-24T03:27:38.567Z,70.71
2018-06-24T03:28:38.376Z,71.03
2018-06-24T03:29:38.393Z,70.26
2018-06-24T03:30:38.356Z,70.23
2018-06-24T03:31:38.398Z,69.8
2018-06-24T03:32:38.367Z,69.36
2018-06-24T03:33:38.364Z,70.06
2018-06-24T03:34:38.361Z,70.73
2018-06-24T03:35:38.361Z,70.85
2018-06-24T03:36:38.367Z,69.96
2018-06-24T03:37:38.373Z,70.12
2018-06-24T03:38:38.378Z,69.86
2018-06-24T03:39:38.394Z,70.3
2018-06-24T03:40:38.379Z,69.87
2018-06-24T03:41:38.371Z,71.14
2018-06-24T03:42:38.372Z,71.07
2018-06-24T03:43:38.357Z,70.17
2018-06-24T03:44:38.391Z,69.58
2018-06-24T03:45:38.370Z,70.21
2018-06-24T03:46:38.392Z,69.53
2018-06-24T03:47:38.375Z,69.96
2018-06-24T03:48:38.366Z,69.96
2018-06-24T03:49:38.484Z,70.01
2018-06-24T03:50:38.380Z,71.02
2018-06-24T03:51:38.575Z,70.94
2018-06-24T03:52:38.427Z,70.16
2018-06-24T03:53:38.410Z,70.14
2018-06-24T03:54:38.364Z,69.79
2018-06-24T03:55:38.518Z,69.75
2018-06-24T03:56:38.403Z,70.58
2018-06-24T03:57:38.380Z,70.95
2018-06-24T03:58:38.537Z,70.99
2018-06-24T03:59:38.394Z,70.49
2018-06-24T04:00:38.370Z,70.74
2018-06-24T04:01:38.470Z,71.28
2018-06-24T04:02:38.566Z,70.88
2018-06-24T04:03:38.421Z,70.1
2018-06-24T04:04:38.432Z,70.13
2018-06-24T04:05:38.388Z,70.33
2018-06-24T04:06:38.436Z,69.84
2018-06-24T04:07:38.381Z,70.08
2018-06-24T04:08:38.425Z,70.2
2018-06-24T04:09:38.469Z,70.67
2018-06-24T04:10:38.409Z,70.29
2018-06-24T04:11:38.514Z,69.89
2018-06-24T04:12:38.379Z,70.64
2018-06-24T04:13:38.444Z,70.95
2018-06-24T04:14:38.393Z,70.74
2018-06-24T04:15:38.392Z,70.51
2018-06-24T04:16:38.414Z,70.8
2018-06-24T04:17:38.401Z,70.67
2018-06-24T04:18:38.391Z,70.95
2018-06-24T04:19:38.404Z,71.13
2018-06-24T04:20:38.387Z,70.21
2018-06-24T04:21:38.377Z,69.67
2018-06-24T04:22:38.401Z,70.09
2018-06-24T04:23:38.390Z,69.81
2018-06-24T04:24:38.375Z,69.85
2018-06-24T04:25:38.423Z,69.49
2018-06-24T04:26:38.374Z,70.43
2018-06-24T04:27:38.380Z,70
2018-06-24T04:28:38.387Z,70.7
2018-06-24T04:29:38.386Z,70.06
2018-06-24T04:30:38.392Z,70.34
2018-06-24T04:31:38.397Z,69.79
2018-06-24T04:32:38.415Z,69.26
2018-06-24T04:33:38.414Z,70.6
2018-06-24T04:34:38.481Z,71.12
2018-06-24T04:35:38.491Z,71.01
2018-06-24T04:36:38.533Z,70.01
2018-06-24T04:37:38.420Z,69.79
2018-06-24T04:38:38.409Z,70.67
2018-06-24T04:39:38.402Z,70.06
2018-06-24T04:40:38.387Z,70.31
2018-06-24T04:41:38.426Z,69.81
2018-06-24T04:42:38.451Z,69.62
2018-06-24T04:43:38.400Z,69.97
2018-06-24T04:44:38.453Z,69.68
2018-06-24T04:45:38.411Z,69.7
2018-06-24T04:46:38.414Z,69.49
2018-06-24T04:47:38.447Z,70.14
2018-06-24T04:48:38.427Z,69.95
2018-06-24T04:49:38.408Z,70.17
2018-06-24T04:50:38.421Z,69.7
2018-06-24T04:51:38.450Z,69.67
2018-06-24T04:52:38.595Z,69.77
2018-06-24T04:53:38.410Z,70.74
2018-06-24T04:54:38.435Z,70.37
2018-06-24T04:55:38.443Z,69.58
2018-06-24T04:56:38.582Z,70
2018-06-24T04:57:38.435Z,70.27
2018-06-24T04:58:38.405Z,69.84
2018-06-24T04:59:38.417Z,69.49
2018-06-24T05:00:38.422Z,69.36
2018-06-24T05:01:38.404Z,69.04
2018-06-24T05:02:38.413Z,69.29
2018-06-24T05:03:38.478Z,70.17
2018-06-24T05:04:38.415Z,69.67
2018-06-24T05:05:38.470Z,69.86
2018-06-24T05:06:38.413Z,69.51
2018-06-24T05:07:38.434Z,70.18
2018-06-24T05:08:38.421Z,69.52
2018-06-24T05:09:38.417Z,70.14
2018-06-24T05:10:38.466Z,69.83
2018-06-24T05:11:38.448Z,69.56
2018-06-24T05:12:38.651Z,69.35
2018-06-24T05:13:38.497Z,69.58
2018-06-24T05:14:38.476Z,69.57
2018-06-24T05:15:38.467Z,70.02
2018-06-24T05:16:38.454Z,69.39
2018-06-24T05:17:38.514Z,69.25
2018-06-24T05:18:38.445Z,69.2
2018-06-24T05:19:38.455Z,69.65
2018-06-24T05:20:38.464Z,70.08
2018-06-24T05:21:38.437Z,69.64
2018-06-24T05:22:38.483Z,69.32
2018-06-24T05:23:38.441Z,69.42
2018-06-24T05:24:38.493Z,70.22
2018-06-24T05:25:38.447Z,69.44
2018-06-24T05:26:38.459Z,69.81
2018-06-24T05:27:38.580Z,70.09
2018-06-24T05:28:38.421Z,69.61
2018-06-24T05:29:38.417Z,69.66
2018-06-24T05:30:38.418Z,70.02
2018-06-24T05:31:38.460Z,69.63
2018-06-24T05:32:38.436Z,69.81
2018-06-24T05:33:38.434Z,69.75
2018-06-24T05:34:38.438Z,69.35
2018-06-24T05:35:38.612Z,69.24
2018-06-24T05:36:38.461Z,69.43
2018-06-24T05:37:38.455Z,69.78
2018-06-24T05:38:38.432Z,69.53
2018-06-24T05:39:38.440Z,69.82
2018-06-24T05:40:38.455Z,69.45
2018-06-24T05:41:38.446Z,69.45
2018-06-24T05:42:38.445Z,69.27
2018-06-24T05:43:38.461Z,68.93
2018-06-24T05:44:38.469Z,69.22
2018-06-24T05:45:38.428Z,68.75
2018-06-24T05:46:38.423Z,68.87
2018-06-24T05:47:38.446Z,68.72
2018-06-24T05:48:38.438Z,68.93
2018-06-24T05:49:38.422Z,68.73
2018-06-24T05:50:38.646Z,68.43
2018-06-24T05:51:38.427Z,68.26
2018-06-24T05:52:38.462Z,68.73
2018-06-24T05:53:38.467Z,68.85
2018-06-24T05:54:38.454Z,68.18
2018-06-24T05:55:38.460Z,68.17
2018-06-24T05:56:38.764Z,68.15
2018-06-24T05:57:38.460Z,68.46
2018-06-24T05:58:38.659Z,68.48
2018-06-24T05:59:38.474Z,68.46
2018-06-24T06:00:38.448Z,68.67
2018-06-24T06:01:38.500Z,68.87
2018-06-24T06:02:38.461Z,68.64
2018-06-24T06:03:38.444Z,68.38
2018-06-24T06:04:38.505Z,68.1
2018-06-24T06:05:38.460Z,68.38
2018-06-24T06:06:38.479Z,68.16
2018-06-24T06:07:38.462Z,67.87
2018-06-24T06:08:38.637Z,68.32
2018-06-24T06:09:38.510Z,67.97
2018-06-24T06:10:38.459Z,67.94
2018-06-24T06:11:38.459Z,68.06
2018-06-24T06:12:38.668Z,68.21
2018-06-24T06:13:38.456Z,67.93
2018-06-24T06:14:38.471Z,68.02
2018-06-24T06:15:38.494Z,67.78
2018-06-24T06:16:38.446Z,68.35
2018-06-24T06:17:38.552Z,68.26
2018-06-24T06:18:38.434Z,68.35
2018-06-24T06:19:38.452Z,68.14
2018-06-24T06:20:38.453Z,67.86
2018-06-24T06:21:38.518Z,67.82
2018-06-24T06:22:38.459Z,67.4
2018-06-24T06:23:38.443Z,67.78
2018-06-24T06:24:38.572Z,67.91
2018-06-24T06:25:38.466Z,67.57
2018-06-24T06:26:38.560Z,67.3
2018-06-24T06:27:38.464Z,67.78
2018-06-24T06:28:38.499Z,67.27
2018-06-24T06:29:38.496Z,67.26
2018-06-24T06:30:38.488Z,67.46
2018-06-24T06:31:38.448Z,67.37
2018-06-24T06:32:38.472Z,67.56
2018-06-24T06:33:38.963Z,67.99
2018-06-24T06:34:38.524Z,68.06
2018-06-24T06:35:38.459Z,67.93
2018-06-24T06:36:38.482Z,67.47
2018-06-24T06:37:38.539Z,67.78
2018-06-24T06:38:38.485Z,67.63
2018-06-24T06:39:38.473Z,67.27
2018-06-24T06:40:38.496Z,67.47
2018-06-24T06:41:38.477Z,67.08
2018-06-24T06:42:38.498Z,66.65
2018-06-24T06:43:38.487Z,66.76
2018-06-24T06:44:38.472Z,66.93
2018-06-24T06:45:38.735Z,66.27
2018-06-24T06:46:38.476Z,66.41
2018-06-24T06:47:38.472Z,65.95
2018-06-24T06:48:38.452Z,65.62
2018-06-24T06:49:38.462Z,65.98
2018-06-24T06:50:38.477Z,66.14
2018-06-24T06:51:38.463Z,65.94
2018-06-24T06:52:38.461Z,65.81
2018-06-24T06:53:38.484Z,65.67
2018-06-24T06:54:38.460Z,65.44
2018-06-24T06:55:38.471Z,65.37
2018-06-24T06:56:38.465Z,65.62
2018-06-24T06:57:38.471Z,64.58
2018-06-24T06:58:38.480Z,65.12
2018-06-24T06:59:38.483Z,65.19
2018-06-24T07:00:38.502Z,65.16
2018-06-24T07:01:38.511Z,64.89
2018-06-24T07:02:38.654Z,64.21
2018-06-24T07:03:38.614Z,64.22
2018-06-24T07:04:38.481Z,64.05
2018-06-24T07:05:39.103Z,64.28
2018-06-24T07:06:38.501Z,64.11
2018-06-24T07:07:38.579Z,63.99
2018-06-24T07:08:38.489Z,64.21
2018-06-24T07:09:38.482Z,64.31
2018-06-24T07:10:38.494Z,64.13
2018-06-24T07:11:38.607Z,63.71
2018-06-24T07:12:38.704Z,63.54
2018-06-24T07:13:38.584Z,63.28
2018-06-24T07:14:38.886Z,63.71
2018-06-24T07:15:38.566Z,63.95
2018-06-24T07:16:38.514Z,63.77
2018-06-24T07:17:38.518Z,63.13
2018-06-24T07:18:38.517Z,63.11
2018-06-24T07:19:38.557Z,63.4
2018-06-24T07:20:38.535Z,63.55
2018-06-24T07:21:38.539Z,63.84
2018-06-24T07:22:38.561Z,63.95
2018-06-24T07:23:38.553Z,63.57
2018-06-24T07:24:38.593Z,63.42
2018-06-24T07:25:38.576Z,63.26
2018-06-24T07:26:38.601Z,63.16
2018-06-24T07:27:38.669Z,63.21
2018-06-24T07:28:38.607Z,63.21
2018-06-24T07:29:38.585Z,63.37
2018-06-24T07:30:38.574Z,63.12
2018-06-24T07:31:38.565Z,63.24
2018-06-24T07:32:38.619Z,63.28
2018-06-24T07:33:38.664Z,62.28
2018-06-24T07:34:38.646Z,62.76
2018-06-24T07:35:38.655Z,62.41
2018-06-24T07:36:38.629Z,63.28
2018-06-24T07:37:38.620Z,62.83
2018-06-24T07:38:38.685Z,62.62
2018-06-24T07:39:38.849Z,62.54
2018-06-24T07:40:38.672Z,62.52
2018-06-24T07:41:38.662Z,62.38
2018-06-24T07:42:38.689Z,62.38
2018-06-24T07:43:38.666Z,62.38
2018-06-24T07:44:38.655Z,62.17
2018-06-24T07:45:38.663Z,62.29
2018-06-24T07:46:38.681Z,62.45
2018-06-24T07:47:38.813Z,62.3
2018-06-24T07:48:38.684Z,62.24
2018-06-24T07:49:38.692Z,61.98
2018-06-24T07:50:38.698Z,61.84
2018-06-24T07:51:38.655Z,61.66
2018-06-24T07:52:38.679Z,61.4
2018-06-24T07:53:38.744Z,61.77
2018-06-24T07:54:38.755Z,62.03
2018-06-24T07:55:38.759Z,61.91
2018-06-24T07:56:38.766Z,61.39
2018-06-24T07:57:38.777Z,61.06
2018-06-24T07:58:38.658Z,61.22
2018-06-24T07:59:38.669Z,61.4
2018-06-24T08:00:38.677Z,61.73
2018-06-24T08:01:38.504Z,61.59
2018-06-24T08:02:38.680Z,61.19
2018-06-24T08:03:38.519Z,61.58
2018-06-24T08:04:38.529Z,61.32
2018-06-24T08:05:38.524Z,61.95
2018-06-24T08:06:38.529Z,62.58
2018-06-24T08:07:38.534Z,62.61
2018-06-24T08:08:38.699Z,62.29
2018-06-24T08:09:38.724Z,62.52
2018-06-24T08:10:38.554Z,62.4
2018-06-24T08:11:38.539Z,62.64
2018-06-24T08:12:38.521Z,61.93
2018-06-24T08:13:38.922Z,61.71
2018-06-24T08:14:38.563Z,61.99
2018-06-24T08:15:38.849Z,62.59
2018-06-24T08:16:38.540Z,62.6
2018-06-24T08:17:38.576Z,62.55
2018-06-24T08:18:38.815Z,62.31
2018-06-24T08:19:38.831Z,62.37
2018-06-24T08:20:38.608Z,62.87
2018-06-24T08:21:38.523Z,62.43
2018-06-24T08:22:38.600Z,62.72
2018-06-24T08:23:38.544Z,62.63
2018-06-24T08:24:38.588Z,62.23
2018-06-24T08:25:38.541Z,61.98
2018-06-24T08:26:38.868Z,62.46
2018-06-24T08:27:38.557Z,62.49
2018-06-24T08:28:38.530Z,62.57
2018-06-24T08:29:38.610Z,62.59
2018-06-24T08:30:38.577Z,62.36
2018-06-24T08:31:38.925Z,62.43
2018-06-24T08:32:38.695Z,62.56
2018-06-24T08:33:38.562Z,62.3
2018-06-24T08:34:38.525Z,62.43
2018-06-24T08:35:39.884Z,62.27
2018-06-24T08:36:38.603Z,62.06
2018-06-24T08:37:38.549Z,62.12
2018-06-24T08:38:42.730Z,62.37
2018-06-24T08:39:38.694Z,62.21
2018-06-24T08:40:38.552Z,62.2
2018-06-24T08:41:38.651Z,62.05
2018-06-24T08:42:38.905Z,61.91
2018-06-24T08:43:38.680Z,60.91
2018-06-24T08:44:38.920Z,61.24
2018-06-24T08:45:38.564Z,60.83
2018-06-24T08:46:39.204Z,60.72
2018-06-24T08:47:38.977Z,60.51
2018-06-24T08:48:38.541Z,59.32
2018-06-24T08:49:38.546Z,58.82
2018-06-24T08:50:38.717Z,58.17
2018-06-24T08:51:38.563Z,58.1
2018-06-24T08:52:38.728Z,57.8
2018-06-24T08:53:38.761Z,58.17
2018-06-24T08:54:38.743Z,58.32
2018-06-24T08:55:38.559Z,57.55
2018-06-24T08:56:38.756Z,58.02
2018-06-24T08:57:38.763Z,58.45
2018-06-24T08:58:38.775Z,58.5
2018-06-24T08:59:38.570Z,58.78
2018-06-24T09:00:38.692Z,58.87
2018-06-24T09:01:38.687Z,58.94
2018-06-24T09:02:38.696Z,58.98
2018-06-24T09:03:38.544Z,59.42
2018-06-24T09:04:38.612Z,60.09
2018-06-24T09:05:38.722Z,59.98
2018-06-24T09:06:38.731Z,59.35
2018-06-24T09:07:38.730Z,59.11
2018-06-24T09:08:38.637Z,59.28
2018-06-24T09:09:38.570Z,58.64
2018-06-24T09:10:38.559Z,58.66
2018-06-24T09:11:38.658Z,58.64
2018-06-24T09:12:38.570Z,58.01
2018-06-24T09:13:38.687Z,58.42
2018-06-24T09:14:39.704Z,58.72
2018-06-24T09:15:39.772Z,59
2018-06-24T09:16:38.630Z,59.23
2018-06-24T09:17:38.702Z,58.99
2018-06-24T09:18:38.619Z,59.1
2018-06-24T09:19:38.727Z,59.2
2018-06-24T09:20:38.733Z,59.67
2018-06-24T09:21:38.727Z,59.93
2018-06-24T09:22:38.738Z,59.86
2018-06-24T09:23:38.749Z,59.85
2018-06-24T09:24:38.752Z,59.33
2018-06-24T09:25:38.761Z,59.46
2018-06-24T09:26:40.812Z,58.88
2018-06-24T09:27:39.271Z,59.35
2018-06-24T09:28:38.573Z,58.97
2018-06-24T09:29:38.784Z,58.39
2018-06-24T09:30:38.595Z,58.24
2018-06-24T09:31:38.589Z,58.85
2018-06-24T09:32:38.728Z,58.92
2018-06-24T09:33:38.717Z,59.44
2018-06-24T09:34:38.586Z,59.37
2018-06-24T09:35:38.730Z,56.65
2018-06-24T09:36:38.578Z,54.84
2018-06-24T09:37:38.631Z,54.75
2018-06-24T09:39:38.760Z,54.76
2018-06-24T09:40:38.613Z,54.58
2018-06-24T09:41:38.768Z,55.07
2018-06-24T09:42:38.691Z,56.11
2018-06-24T09:43:38.658Z,56.05
2018-06-24T09:44:38.685Z,55.93
2018-06-24T09:45:38.604Z,56.34
2018-06-24T09:46:38.633Z,56.42
2018-06-24T09:47:38.714Z,56.21
2018-06-24T09:48:38.577Z,55.94
2018-06-24T09:49:38.616Z,55.38
2018-06-24T09:50:38.725Z,55.53
2018-06-24T09:51:38.687Z,54.72
2018-06-24T09:52:38.735Z,54.57
2018-06-24T09:53:38.646Z,54.59
2018-06-24T09:54:38.681Z,54.67
2018-06-24T09:55:38.605Z,53.04
2018-06-24T09:56:38.720Z,52.99
2018-06-24T09:57:38.592Z,53.47
2018-06-24T09:58:38.659Z,53.14
2018-06-24T09:59:38.692Z,53.82
2018-06-24T10:00:39.162Z,53.41
2018-06-24T10:01:38.651Z,53.46
2018-06-24T10:02:38.703Z,54.13
2018-06-24T10:03:38.641Z,53.56
2018-06-24T10:04:39.548Z,53.85
2018-06-24T10:05:38.826Z,53.71
2018-06-24T10:06:38.639Z,53.46
2018-06-24T10:07:38.637Z,53.81
2018-06-24T10:08:38.748Z,54.04
2018-06-24T10:09:38.671Z,54.17
2018-06-24T10:10:38.690Z,54.4
2018-06-24T10:11:38.874Z,54.3
2018-06-24T10:12:38.758Z,54.51
2018-06-24T10:13:38.664Z,55
2018-06-24T10:14:38.915Z,54.46
2018-06-24T10:15:38.806Z,54.66
2018-06-24T10:16:38.767Z,54.52
2018-06-24T10:17:38.813Z,55.29
2018-06-24T10:18:39.086Z,55.49
2018-06-24T10:19:41.379Z,55.21
2018-06-24T10:20:46.126Z,53.97
2018-06-24T10:21:38.774Z,53.44
2018-06-24T10:22:38.743Z,54.09
2018-06-24T10:23:38.745Z,54.53
2018-06-24T10:24:39.375Z,54.88
2018-06-24T10:25:38.828Z,54.73
2018-06-24T10:26:38.984Z,55.05
2018-06-24T10:27:38.912Z,55.12
2018-06-24T10:28:38.792Z,55.12
2018-06-24T10:29:38.815Z,55.23
2018-06-24T10:30:38.780Z,55.18
2018-06-24T10:31:38.869Z,55.43
2018-06-24T10:32:38.918Z,54.85
2018-06-24T10:33:38.769Z,54.7
2018-06-24T10:34:38.826Z,54.22
2018-06-24T10:35:38.940Z,53.94
2018-06-24T10:36:38.798Z,54.68
2018-06-24T10:37:38.737Z,54.08
2018-06-24T10:38:38.854Z,54.86
2018-06-24T10:39:38.966Z,53.99
2018-06-24T10:40:38.777Z,53.62
2018-06-24T10:41:38.800Z,53.02
2018-06-24T10:42:38.767Z,52.92
2018-06-24T10:43:38.900Z,52.52
2018-06-24T10:44:38.773Z,52.26
2018-06-24T10:45:38.758Z,52.48
2018-06-24T10:46:38.977Z,52.13
2018-06-24T10:47:38.814Z,51.74
2018-06-24T10:48:38.866Z,51.55
2018-06-24T10:49:38.865Z,50.84
2018-06-24T10:50:38.774Z,50.14
2018-06-24T10:51:38.780Z,50.2
2018-06-24T10:52:38.808Z,50.74
2018-06-24T10:53:38.800Z,50.39
2018-06-24T10:54:38.796Z,50.17
2018-06-24T10:55:38.807Z,50.33
2018-06-24T10:56:38.830Z,51.46
2018-06-24T10:57:38.795Z,51.75
2018-06-24T10:58:38.898Z,51.41
2018-06-24T10:59:38.825Z,51.67
2018-06-24T11:00:38.690Z,51.12
2018-06-24T11:01:38.732Z,51.22
2018-06-24T11:02:38.816Z,51.38
2018-06-24T11:03:38.706Z,51.52
2018-06-24T11:04:38.648Z,51.85
2018-06-24T11:05:38.736Z,51.92
2018-06-24T11:06:38.634Z,51.25
2018-06-24T11:07:38.663Z,51.34
2018-06-24T11:08:38.861Z,51.75
2018-06-24T11:09:38.769Z,51.41
2018-06-24T11:10:38.636Z,51.12
2018-06-24T11:11:38.779Z,51.22
2018-06-24T11:12:38.648Z,51.42
2018-06-24T11:13:38.637Z,50.92
2018-06-24T11:14:38.697Z,50.57
2018-06-24T11:15:38.651Z,50.1
2018-06-24T11:16:38.625Z,49.98
2018-06-24T11:17:39.847Z,50.28
2018-06-24T11:18:38.637Z,48.75
2018-06-24T11:19:38.633Z,48.31
2018-06-24T11:20:38.838Z,48.93
2018-06-24T11:21:38.652Z,48.13
2018-06-24T11:22:38.691Z,47.77
2018-06-24T11:23:38.759Z,48.26
2018-06-24T11:24:38.664Z,48.17
2018-06-24T11:25:38.654Z,47.74
2018-06-24T11:26:38.776Z,47.75
2018-06-24T11:27:38.647Z,47.95
2018-06-24T11:28:38.651Z,48.41
2018-06-24T11:29:38.804Z,48.36
2018-06-24T11:30:38.663Z,48.06
2018-06-24T11:31:38.651Z,48.21
2018-06-24T11:32:38.820Z,48.51
2018-06-24T11:33:38.636Z,48.35
2018-06-24T11:34:38.648Z,48.56
2018-06-24T11:35:38.735Z,48.68
2018-06-24T11:36:38.653Z,48.62
2018-06-24T11:37:38.657Z,48.88
2018-06-24T11:38:38.865Z,48.67
2018-06-24T11:39:38.766Z,49.11
2018-06-24T11:40:38.662Z,49.13
2018-06-24T11:41:39.809Z,48.97
2018-06-24T11:42:38.702Z,49
2018-06-24T11:43:38.721Z,48.41
2018-06-24T11:44:38.802Z,48.99
2018-06-24T11:45:38.665Z,49.29
2018-06-24T11:46:38.674Z,49.22
2018-06-24T11:47:38.822Z,49.1
2018-06-24T11:48:38.656Z,48.22
2018-06-24T11:49:38.679Z,48.07
2018-06-24T11:50:38.746Z,47.68
2018-06-24T11:51:38.660Z,47.59
2018-06-24T11:52:38.672Z,47.16
2018-06-24T11:53:38.776Z,47.13
2018-06-24T11:54:38.678Z,47.16
2018-06-24T11:55:38.672Z,46.61
2018-06-24T11:56:38.888Z,46.65
2018-06-24T11:57:38.720Z,46.67
2018-06-24T11:58:38.712Z,46.37
2018-06-24T11:59:39.007Z,45.92
2018-06-24T12:00:38.716Z,46.22
2018-06-24T12:01:38.681Z,46.22
2018-06-24T12:02:38.825Z,46.52
2018-06-24T12:03:38.725Z,46.35
2018-06-24T12:04:38.676Z,46.05
2018-06-24T12:05:38.848Z,45.81
2018-06-24T12:06:38.669Z,46.41
2018-06-24T12:07:38.700Z,45.24
2018-06-24T12:08:38.973Z,45.3
2018-06-24T12:09:38.696Z,44.72
2018-06-24T12:10:38.684Z,45.31
2018-06-24T12:11:39.092Z,44.46
2018-06-24T12:12:38.704Z,44.95
2018-06-24T12:13:38.810Z,45.22
2018-06-24T12:14:39.251Z,44.37
2018-06-24T12:15:38.676Z,44.11
2018-06-24T12:16:38.780Z,43.95
2018-06-24T12:17:38.825Z,44.91
2018-06-24T12:18:38.719Z,45.12
2018-06-24T12:19:38.695Z,45.21
2018-06-24T12:20:38.845Z,45.34
2018-06-24T12:21:38.751Z,45.68
2018-06-24T12:22:38.701Z,44.08
2018-06-24T12:23:41.225Z,43.98
2018-06-24T12:24:38.695Z,44.26
2018-06-24T12:25:38.700Z,43.9
2018-06-24T12:26:38.793Z,44.01
2018-06-24T12:27:38.696Z,44.2
2018-06-24T12:28:38.706Z,44.4
2018-06-24T12:29:38.686Z,44.71
2018-06-24T12:30:38.831Z,44.67
2018-06-24T12:31:38.683Z,44.51
2018-06-24T12:32:38.929Z,44.39
2018-06-24T12:33:38.717Z,44.39
2018-06-24T12:34:38.700Z,43.82
2018-06-24T12:35:38.690Z,43.92
2018-06-24T12:36:38.695Z,44.15
2018-06-24T12:37:38.710Z,44.11
2018-06-24T12:38:38.865Z,44.02
2018-06-24T12:39:38.832Z,44.26
2018-06-24T12:40:38.730Z,44.13
2018-06-24T12:41:38.803Z,44.63
2018-06-24T12:42:38.725Z,44.68
2018-06-24T12:43:38.711Z,44.68
2018-06-24T12:44:38.905Z,44.53
2018-06-24T12:45:38.720Z,44.21
2018-06-24T12:46:38.733Z,45.34
2018-06-24T12:47:38.713Z,44.41
2018-06-24T12:48:38.902Z,45.17
2018-06-24T12:49:38.735Z,45.35
2018-06-24T12:50:38.888Z,45.23
2018-06-24T12:51:38.769Z,45.49
2018-06-24T12:52:38.920Z,45.04
2018-06-24T12:53:38.867Z,44.9
2018-06-24T12:54:38.801Z,44.46
2018-06-24T12:55:38.761Z,44.5